Time;durP1;ratioP1;P1;durP2;ratioP2;P2;SDS_P1;SDS_P2;PMS_P1;PMS_P2;Temp;Humidity;BMP_temperature;BMP_pressure;BME280_temperature;BME280_humidity;BME280_pressure;Samples;Min_cycle;Max_cycle;Signal;HPM_P1;HPM_P2
2023/12/13 00:02:04;;;;;;;82.85;43.42;;;;;;;3.33;100.00;99413.15;1723759;80;28030;-63
2023/12/13 00:04:31;;;;;;;80.75;42.08;;;;;;;3.32;100.00;99412.91;1730189;81;25453;-64
2023/12/13 00:06:57;;;;;;;85.92;43.45;;;;;;;3.32;100.00;99406.75;1732113;81;25873;-64
2023/12/13 00:09:24;;;;;;;95.77;47.10;;;;;;;3.34;100.00;99408.63;1740364;81;25960;-64
2023/12/13 00:11:51;;;;;;;87.53;44.45;;;;;;;3.31;100.00;99412.64;1739735;81;25448;-65
2023/12/13 00:14:18;;;;;;;84.13;44.50;;;;;;;3.31;100.00;99407.30;1744559;81;28023;-64
2023/12/13 00:16:45;;;;;;;84.32;44.10;;;;;;;3.30;100.00;99403.05;1744548;80;25472;-65
2023/12/13 00:19:12;;;;;;;91.45;46.88;;;;;;;3.30;100.00;99409.73;1747968;81;25806;-64
2023/12/13 00:21:38;;;;;;;94.55;45.83;;;;;;;3.28;100.00;99405.18;1726059;80;25972;-64
2023/12/13 00:24:07;;;;;;;87.57;44.45;;;;;;;3.27;100.00;99410.28;1719009;81;25950;-64
2023/12/13 00:26:34;;;;;;;88.27;44.95;;;;;;;3.26;100.00;99403.33;1737506;81;27804;-63
2023/12/13 00:29:01;;;;;;;94.72;46.02;;;;;;;3.28;100.00;99398.50;1743314;81;25386;-64
2023/12/13 00:31:28;;;;;;;77.58;43.50;;;;;;;3.27;100.00;99393.43;1732955;81;25592;-63
2023/12/13 00:33:54;;;;;;;83.12;41.50;;;;;;;3.27;100.00;99398.26;1725783;80;26776;-63
2023/12/13 00:36:21;;;;;;;85.92;42.58;;;;;;;3.24;100.00;99389.46;1752473;80;25463;-62
2023/12/13 00:38:47;;;;;;;87.45;43.28;;;;;;;3.24;100.00;99390.80;1736620;80;27644;-62
2023/12/13 00:41:14;;;;;;;87.17;43.20;;;;;;;3.24;100.00;99396.69;1692946;83;26072;-62
2023/12/13 00:43:41;;;;;;;90.40;45.88;;;;;;;3.23;100.00;99390.53;1678628;83;25914;-64
2023/12/13 00:46:19;;;;;;;85.50;42.67;;;;;;;3.21;100.00;99387.89;1688815;81;26578;-63
2023/12/13 00:48:46;;;;;;;83.85;42.15;;;;;;;3.20;100.00;99392.42;1711631;82;25880;-63
2023/12/13 00:51:19;;;;;;;99.30;46.68;;;;;;;3.20;100.00;99396.43;1688707;83;27795;-63
2023/12/13 00:53:47;;;;;;;96.42;44.48;;;;;;;3.18;100.00;99398.08;1705712;83;25805;-64
2023/12/13 00:56:14;;;;;;;99.20;44.55;;;;;;;3.17;100.00;99390.34;1701497;83;25840;-64
2023/12/13 00:58:42;;;;;;;85.65;42.15;;;;;;;3.15;100.00;99393.80;1698768;81;25649;-64
2023/12/13 01:01:10;;;;;;;86.63;40.60;;;;;;;3.14;100.00;99393.56;1702718;83;25934;-64
2023/12/13 01:03:37;;;;;;;89.30;41.95;;;;;;;3.14;100.00;99385.00;1715656;82;28026;-64
2023/12/13 01:06:09;;;;;;;95.62;42.95;;;;;;;3.14;100.00;99386.34;1708869;82;25995;-63
2023/12/13 01:08:39;;;;;;;95.65;41.42;;;;;;;3.13;100.00;99383.94;1704872;82;25836;-63
2023/12/13 01:11:12;;;;;;;87.85;41.30;;;;;;;3.12;100.00;99386.38;1705706;83;26138;-63
2023/12/13 01:13:41;;;;;;;98.27;42.88;;;;;;;3.12;100.00;99381.03;1695068;81;25605;-63
2023/12/13 01:16:09;;;;;;;89.50;40.75;;;;;;;3.11;100.00;99376.75;1703082;82;28108;-64
2023/12/13 01:18:36;;;;;;;82.60;39.45;;;;;;;3.09;100.00;99382.38;1704713;81;25834;-64
2023/12/13 01:21:04;;;;;;;82.65;39.20;;;;;;;3.10;100.00;99379.16;1695485;83;25834;-63
2023/12/13 01:23:31;;;;;;;135.82;45.43;;;;;;;3.09;100.00;99373.57;1697569;82;25784;-63
2023/12/13 01:25:58;;;;;;;98.52;41.75;;;;;;;3.08;100.00;99371.45;1694459;82;25778;-63
2023/12/13 01:28:25;;;;;;;177.87;44.50;;;;;;;3.08;100.00;99374.12;1703420;83;28354;-64
2023/12/13 01:30:53;;;;;;;103.17;42.08;;;;;;;3.09;100.00;99367.68;1703222;82;26084;-64
2023/12/13 01:33:20;;;;;;;89.72;40.92;;;;;;;3.08;100.00;99367.44;1703530;82;25722;-63
2023/12/13 01:35:46;;;;;;;83.92;40.60;;;;;;;3.09;100.00;99360.21;1712116;82;26152;-63
2023/12/13 01:38:13;;;;;;;87.80;39.45;;;;;;;3.09;100.00;99363.67;1685778;82;25861;-64
2023/12/13 01:40:51;;;;;;;81.90;39.13;;;;;;;3.11;100.00;99365.52;1709828;83;28405;-65
2023/12/13 01:43:25;;;;;;;82.27;39.15;;;;;;;3.10;100.00;99358.59;1703068;83;25884;-63
2023/12/13 01:45:57;;;;;;;83.95;40.15;;;;;;;3.11;100.00;99358.84;1714701;83;25490;-63
2023/12/13 01:48:26;;;;;;;84.32;39.27;;;;;;;3.12;100.00;99352.42;1694931;81;26900;-63
2023/12/13 01:50:55;;;;;;;87.47;41.15;;;;;;;3.12;100.00;99355.09;1704033;81;25449;-63
2023/12/13 01:53:24;;;;;;;;;;;;;;;3.13;100.00;99353.21;1702679;83;28063;-64
2023/12/13 01:55:52;;;;;;;87.20;41.53;;;;;;;3.13;100.00;99354.03;1695210;82;26031;-64
2023/12/13 01:58:20;;;;;;;91.40;42.95;;;;;;;3.14;100.00;99357.48;1710198;83;25790;-64
2023/12/13 02:00:47;;;;;;;92.75;42.93;;;;;;;3.15;100.00;99351.05;1675062;83;25668;-64
2023/12/13 02:03:15;;;;;;;88.05;39.35;;;;;;;3.16;100.00;99352.66;1705092;83;25818;-64
2023/12/13 02:05:44;;;;;;;129.13;43.30;;;;;;;3.16;100.00;99347.31;1690881;83;26872;-64
2023/12/13 02:08:10;;;;;;;108.20;43.02;;;;;;;3.16;100.00;99345.97;1718044;81;25567;-64
2023/12/13 02:10:38;;;;;;;106.12;43.92;;;;;;;3.16;100.00;99342.75;1718297;82;25930;-64
2023/12/13 02:13:05;;;;;;;115.10;43.95;;;;;;;3.16;100.00;99344.09;1715287;82;26327;-64
2023/12/13 02:15:35;;;;;;;108.78;40.98;;;;;;;3.16;100.00;99341.41;1724200;82;25405;-65
2023/12/13 02:18:02;;;;;;;94.83;40.90;;;;;;;3.15;100.00;99342.52;1685670;82;28802;-64
2023/12/13 02:20:29;;;;;;;115.28;43.45;;;;;;;3.15;100.00;99342.52;1712323;81;25828;-65
2023/12/13 02:22:57;;;;;;;124.70;40.92;;;;;;;3.15;100.00;99338.50;1693342;83;25530;-64
2023/12/13 02:25:44;;;;;;;135.25;40.83;;;;;;;3.15;100.00;99343.03;1699497;83;26401;-64
2023/12/13 02:28:12;;;;;;;115.55;38.53;;;;;;;3.15;100.00;99336.35;1694068;83;25887;-64
2023/12/13 02:30:41;;;;;;;121.17;39.53;;;;;;;3.13;100.00;99333.17;1708714;81;27320;-64
2023/12/13 02:33:11;;;;;;;99.75;38.60;;;;;;;3.12;100.00;99329.71;1706841;83;25602;-64
2023/12/13 02:35:38;;;;;;;90.07;39.25;;;;;;;3.12;100.00;99332.38;1706224;83;25878;-64
2023/12/13 02:38:05;;;;;;;91.40;39.58;;;;;;;3.11;100.00;99329.44;1682333;83;26626;-64
2023/12/13 02:40:32;;;;;;;105.97;41.13;;;;;;;3.12;100.00;99335.05;1685826;83;25558;-64
2023/12/13 02:42:59;;;;;;;112.30;39.05;;;;;;;3.12;100.00;99333.72;1674520;83;27500;-64
2023/12/13 02:45:46;;;;;;;110.78;39.58;;;;;;;3.12;100.00;99331.05;1694050;83;25832;-64
2023/12/13 02:48:13;;;;;;;102.72;39.18;;;;;;;3.10;100.00;99326.53;1703504;83;25430;-64
2023/12/13 02:50:39;;;;;;;94.03;38.80;;;;;;;3.11;100.00;99330.78;1718110;81;26077;-64
2023/12/13 02:53:07;;;;;;;94.55;39.10;;;;;;;3.11;100.00;99317.42;1681801;83;26779;-64
2023/12/13 02:55:34;;;;;;;93.62;39.15;;;;;;;3.12;100.00;99313.68;1706458;82;28060;-64
2023/12/13 02:58:01;;;;;;;83.52;37.40;;;;;;;3.13;100.00;99315.28;1699400;82;25490;-64
2023/12/13 03:00:28;;;;;;;96.80;38.53;;;;;;;3.14;100.00;99314.73;1718149;82;25903;-64
2023/12/13 03:02:57;;;;;;;85.72;36.42;;;;;;;3.14;100.00;99308.05;1700669;81;26643;-64
2023/12/13 03:05:25;;;;;;;82.60;37.90;;;;;;;3.16;100.00;99307.22;1714126;81;25417;-63
2023/12/13 03:07:52;;;;;;;97.10;37.93;;;;;;;3.15;100.00;99306.95;1675013;82;27367;-63
2023/12/13 03:10:19;;;;;;;88.87;37.63;;;;;;;3.15;100.00;99309.11;1712308;82;25857;-63
2023/12/13 03:12:47;;;;;;;103.22;37.38;;;;;;;3.15;100.00;99313.64;1717027;82;25494;-63
2023/12/13 03:15:13;;;;;;;92.82;36.15;;;;;;;3.15;100.00;99302.95;1710049;82;25614;-63
2023/12/13 03:17:40;;;;;;;115.77;36.00;;;;;;;3.16;100.00;99312.57;1713725;82;25815;-63
2023/12/13 03:20:09;;;;;;;98.67;35.63;;;;;;;3.15;100.00;99309.11;1713717;81;27501;-64
2023/12/13 03:22:37;;;;;;;104.20;36.55;;;;;;;3.15;100.00;99311.78;1714771;82;27711;-64
2023/12/13 03:25:06;;;;;;;107.72;36.85;;;;;;;3.14;100.00;99300.83;1698984;83;25783;-64
2023/12/13 03:27:33;;;;;;;108.83;36.63;;;;;;;3.14;100.00;99298.70;1711914;82;32814;-64
2023/12/13 03:30:00;;;;;;;86.17;36.25;;;;;;;3.13;100.00;99297.09;1700869;83;25463;-63
2023/12/13 03:32:27;;;;;;;101.53;35.73;;;;;;;3.11;100.00;99292.58;1696104;83;28268;-62
2023/12/13 03:34:54;;;;;;;87.88;34.18;;;;;;;3.09;100.00;99294.20;1705181;81;25804;-63
2023/12/13 03:37:23;;;;;;;77.15;32.65;;;;;;;3.08;100.00;99285.13;1674954;83;25538;-63
2023/12/13 03:39:50;;;;;;;79.90;32.53;;;;;;;3.06;100.00;99288.08;1676306;83;25419;-63
2023/12/13 03:42:17;;;;;;;79.03;32.48;;;;;;;3.06;100.00;99289.41;1672745;83;25963;-63
2023/12/13 03:44:44;;;;;;;73.52;32.50;;;;;;;3.05;100.00;99282.50;1718513;82;27407;-63
2023/12/13 03:47:11;;;;;;;68.65;30.82;;;;;;;3.05;100.00;99281.68;1700595;82;25435;-63
2023/12/13 03:49:38;;;;;;;74.25;33.23;;;;;;;3.07;100.00;99283.55;1716377;83;25853;-63
2023/12/13 03:52:07;;;;;;;69.58;30.92;;;;;;;3.06;100.00;99277.94;1715770;82;26248;-64
2023/12/13 03:54:35;;;;;;;75.22;31.65;;;;;;;3.07;100.00;99279.00;1689751;83;25481;-64
2023/12/13 03:57:03;;;;;;;80.07;33.80;;;;;;;3.08;100.00;99281.12;1709633;82;27501;-64
2023/12/13 03:59:30;;;;;;;76.92;30.60;;;;;;;3.06;100.00;99280.06;1705505;82;25793;-64
2023/12/13 04:01:57;;;;;;;69.65;28.65;;;;;;;3.06;100.00;99284.63;1674934;81;25505;-64
2023/12/13 04:04:24;;;;;;;74.50;30.10;;;;;;;3.05;100.00;99285.69;1718393;81;26303;-65
2023/12/13 04:06:51;;;;;;;74.50;30.27;;;;;;;3.05;100.00;99281.16;1696134;83;25896;-64
2023/12/13 04:09:18;;;;;;;77.87;31.68;;;;;;;3.05;100.00;99289.70;1693209;83;28004;-64
2023/12/13 04:11:45;;;;;;;71.67;30.92;;;;;;;3.06;100.00;99289.41;1677270;83;25621;-64
2023/12/13 04:14:12;;;;;;;73.30;31.68;;;;;;;3.06;100.00;99289.41;1714075;82;25847;-64
2023/12/13 04:16:39;;;;;;;82.45;30.62;;;;;;;3.06;100.00;99292.09;1704284;81;26598;-64
2023/12/13 04:19:06;;;;;;;76.97;29.92;;;;;;;3.07;100.00;99291.02;1676558;81;25481;-63
2023/12/13 04:21:33;;;;;;;74.85;29.65;;;;;;;3.08;100.00;99293.14;1707462;82;28032;-63
2023/12/13 04:24:01;;;;;;;69.60;30.90;;;;;;;3.08;100.00;99283.80;1707526;83;25781;-63
2023/12/13 04:26:28;;;;;;;73.30;30.90;;;;;;;3.09;100.00;99286.19;1695470;82;25467;-63
2023/12/13 04:28:55;;;;;;;71.22;29.18;;;;;;;3.09;100.00;99289.41;1701603;83;26272;-63
2023/12/13 04:31:22;;;;;;;68.95;27.25;;;;;;;3.10;100.00;99292.31;1704990;82;25891;-63
2023/12/13 04:33:49;;;;;;;66.55;28.30;;;;;;;3.10;100.00;99293.65;1700879;81;27222;-63
2023/12/13 04:36:15;;;;;;;71.12;28.23;;;;;;;3.11;100.00;99288.02;1701558;81;25558;-63
2023/12/13 04:38:42;;;;;;;71.07;29.70;;;;;;;3.13;100.00;99283.73;1700076;82;25416;-64
2023/12/13 04:41:09;;;;;;;73.15;29.35;;;;;;;3.15;100.00;99290.92;1708163;81;25799;-64
2023/12/13 04:43:36;;;;;;;70.03;29.23;;;;;;;3.17;100.00;99292.80;1692791;83;25423;-64
2023/12/13 04:46:04;;;;;;;70.70;28.55;;;;;;;3.20;100.00;99293.54;1706916;83;27329;-64
2023/12/13 04:48:31;;;;;;;78.87;29.10;;;;;;;3.22;100.00;99291.41;1704955;82;25803;-64
2023/12/13 04:50:57;;;;;;;71.07;28.42;;;;;;;3.24;100.00;99286.56;1707138;83;25786;-64
2023/12/13 04:53:24;;;;;;;69.60;28.07;;;;;;;3.26;100.00;99288.95;1686525;81;25713;-64
2023/12/13 04:55:50;;;;;;;67.35;28.95;;;;;;;3.27;100.00;99285.19;1709637;83;25583;-64
2023/12/13 04:58:17;;;;;;;75.75;29.95;;;;;;;3.27;100.00;99281.98;1713978;82;27666;-64
2023/12/13 05:00:44;;;;;;;80.55;31.65;;;;;;;3.29;100.00;99284.37;1691646;82;25500;-64
2023/12/13 05:03:11;;;;;;;73.47;31.10;;;;;;;3.29;100.00;99287.05;1690286;82;25453;-64
2023/12/13 05:05:37;;;;;;;77.27;32.70;;;;;;;3.30;100.00;99287.30;1716366;82;25785;-64
2023/12/13 05:08:09;;;;;;;86.12;32.00;;;;;;;3.33;100.00;99286.73;1685303;82;25781;-64
2023/12/13 05:10:34;;;;;;;81.12;31.12;;;;;;;3.32;100.00;99285.94;1689365;82;27335;-64
2023/12/13 05:13:00;;;;;;;83.92;31.75;;;;;;;3.34;100.00;99279.77;1679326;83;25778;-64
2023/12/13 05:15:27;;;;;;;83.65;32.93;;;;;;;3.35;100.00;99276.54;1678426;83;25854;-63
2023/12/13 05:17:54;;;;;;;80.95;31.75;;;;;;;3.34;100.00;99270.95;1698460;83;25549;-63
2023/12/13 05:20:20;;;;;;;86.05;29.05;;;;;;;3.36;100.00;99276.26;1672857;83;25659;-63
2023/12/13 05:22:47;;;;;;;92.53;31.30;;;;;;;3.35;100.00;99272.02;1711515;83;26828;-64
2023/12/13 05:25:14;;;;;;;75.97;30.10;;;;;;;3.37;100.00;99273.03;1707429;82;25760;-64
2023/12/13 05:27:42;;;;;;;80.85;28.55;;;;;;;3.38;100.00;99270.63;1694367;83;25410;-64
2023/12/13 05:30:10;;;;;;;74.17;29.12;;;;;;;3.40;100.00;99266.34;1719699;82;26281;-65
2023/12/13 05:32:38;;;;;;;76.72;30.32;;;;;;;3.40;100.00;99265.78;1696224;82;25874;-64
2023/12/13 05:35:07;;;;;;;85.10;28.20;;;;;;;3.41;100.00;99269.28;1699002;81;27931;-64
2023/12/13 05:37:34;;;;;;;82.95;30.68;;;;;;;3.41;100.00;99267.94;1684166;83;25504;-64
2023/12/13 05:40:01;;;;;;;87.95;30.23;;;;;;;3.43;100.00;99265.77;1706021;83;25829;-63
2023/12/13 05:42:28;;;;;;;75.47;30.62;;;;;;;3.43;100.00;99266.56;1708988;83;25957;-64
2023/12/13 05:44:55;;;;;;;89.28;29.92;;;;;;;3.43;100.00;99261.21;1710461;82;25497;-64
2023/12/13 05:47:22;;;;;;;93.75;30.37;;;;;;;3.44;100.00;99267.34;1702042;82;27252;-64
2023/12/13 05:49:49;;;;;;;78.90;30.08;;;;;;;3.43;100.00;99264.44;1711149;81;26006;-63
2023/12/13 05:52:16;;;;;;;88.97;30.82;;;;;;;3.44;100.00;99263.33;1716544;83;25481;-64
2023/12/13 05:54:43;;;;;;;97.35;31.05;;;;;;;3.44;100.00;99252.64;1717255;81;25876;-63
2023/12/13 05:57:12;;;;;;;87.00;31.50;;;;;;;3.44;100.00;99262.00;1684112;81;25960;-64
2023/12/13 05:59:39;;;;;;;89.00;32.30;;;;;;;3.43;100.00;99252.41;1701059;81;28049;-64
2023/12/13 06:02:08;;;;;;;98.87;36.70;;;;;;;3.44;100.00;99256.13;1696783;82;25564;-63
2023/12/13 06:04:36;;;;;;;97.50;34.73;;;;;;;3.44;100.00;99249.97;1716782;82;25850;-63
2023/12/13 06:07:05;;;;;;;95.28;35.55;;;;;;;3.45;100.00;99248.89;1695777;83;26238;-63
2023/12/13 06:09:32;;;;;;;88.50;35.08;;;;;;;3.46;100.00;99255.30;1700686;83;25228;-64
2023/12/13 06:12:00;;;;;;;96.05;35.25;;;;;;;3.47;100.00;99254.20;1699147;83;28036;-64
2023/12/13 06:14:28;;;;;;;98.55;34.65;;;;;;;3.47;100.00;99244.84;1701320;83;25742;-64
2023/12/13 06:16:56;;;;;;;103.75;36.33;;;;;;;3.48;100.00;99239.75;1691262;82;25473;-65
2023/12/13 06:19:26;;;;;;;89.47;32.63;;;;;;;3.49;100.00;99240.02;1679584;82;25939;-63
2023/12/13 06:21:53;;;;;;;86.02;33.60;;;;;;;3.50;100.00;99238.92;1707319;82;25479;-63
2023/12/13 06:24:20;;;;;;;93.12;35.25;;;;;;;3.50;100.00;99242.14;1698219;83;27310;-64
2023/12/13 06:26:49;;;;;;;102.62;36.93;;;;;;;3.51;100.00;99239.19;1706542;83;25814;-63
2023/12/13 06:29:17;;;;;;;99.92;35.20;;;;;;;3.50;100.00;99230.91;1723945;82;25443;-63
2023/12/13 06:31:44;;;;;;;99.60;36.23;;;;;;;3.51;100.00;99228.49;1698878;82;25700;-63
2023/12/13 06:34:12;;;;;;;95.95;34.38;;;;;;;3.51;100.00;99221.02;1709205;82;26028;-62
2023/12/13 06:36:39;;;;;;;97.60;36.23;;;;;;;3.51;100.00;99223.70;1712873;82;27313;-63
2023/12/13 06:39:11;;;;;;;89.03;34.25;;;;;;;3.52;100.00;99227.42;1703825;82;25673;-63
2023/12/13 06:41:36;;;;;;;94.77;34.75;;;;;;;3.51;100.00;99223.14;1718446;81;26635;-63
2023/12/13 06:44:26;;;;;;;100.72;34.53;;;;;;;3.51;100.00;99227.16;1696881;83;26380;-63
2023/12/13 06:46:53;;;;;;;;;;;;;;;3.52;100.00;99223.41;1689699;83;25836;-63
2023/12/13 06:49:22;;;;;;;89.58;34.13;;;;;;;3.51;100.00;99227.16;1689659;83;27512;-63
2023/12/13 06:51:50;;;;;;;99.40;36.00;;;;;;;3.50;100.00;99222.87;1693786;83;25692;-63
2023/12/13 06:54:18;;;;;;;98.72;38.28;;;;;;;3.50;100.00;99223.43;1704312;83;25911;-64
2023/12/13 06:56:45;;;;;;;97.57;37.78;;;;;;;3.51;100.00;99222.36;1689849;83;26318;-63
2023/12/13 06:59:13;;;;;;;99.83;38.98;;;;;;;3.50;100.00;99226.11;1676042;83;25419;-63
2023/12/13 07:01:40;;;;;;;90.50;35.03;;;;;;;3.51;100.00;99222.36;1677409;83;27325;-63
2023/12/13 07:04:07;;;;;;;95.25;36.05;;;;;;;3.53;100.00;99225.53;1688563;83;25927;-63
2023/12/13 07:06:34;;;;;;;96.97;38.23;;;;;;;3.53;100.00;99226.88;1673167;83;25540;-63
2023/12/13 07:09:02;;;;;;;93.82;38.78;;;;;;;3.52;100.00;99218.06;1709707;83;25867;-63
2023/12/13 07:11:29;;;;;;;95.72;39.25;;;;;;;3.55;100.00;99223.36;1701625;83;25981;-63
2023/12/13 07:13:56;;;;;;;104.17;40.05;;;;;;;3.57;100.00;99221.19;1703402;83;27301;-63
2023/12/13 07:16:24;;;;;;;102.80;40.25;;;;;;;3.60;100.00;99221.95;1702969;83;25839;-63
2023/12/13 07:18:51;;;;;;;94.00;38.80;;;;;;;3.60;100.00;99218.50;1700429;83;25836;-63
2023/12/13 07:21:18;;;;;;;95.15;38.60;;;;;;;3.62;100.00;99220.33;1704768;83;26460;-64
2023/12/13 07:23:46;;;;;;;93.67;37.17;;;;;;;3.63;100.00;99221.94;1698773;83;25475;-63
2023/12/13 07:26:13;;;;;;;99.52;37.80;;;;;;;3.63;100.00;99225.39;1701871;83;28065;-63
2023/12/13 07:28:40;;;;;;;101.55;37.78;;;;;;;3.64;100.00;99224.84;1706600;83;25902;-63
2023/12/13 07:31:07;;;;;;;98.17;37.05;;;;;;;3.62;100.00;99229.14;1681366;83;25531;-63
2023/12/13 07:33:38;;;;;;;92.47;37.25;;;;;;;3.62;100.00;99229.14;1698771;83;25551;-63
2023/12/13 07:36:08;;;;;;;98.90;38.90;;;;;;;3.62;100.00;99231.81;1722177;79;25805;-62
2023/12/13 07:38:34;;;;;;;103.70;36.58;;;;;;;3.62;100.00;99230.48;1729848;81;27319;-62
2023/12/13 07:41:01;;;;;;;95.25;38.78;;;;;;;3.63;100.00;99223.27;1733001;81;26080;-62
2023/12/13 07:43:29;;;;;;;102.70;39.78;;;;;;;3.62;100.00;99214.98;1692669;82;26671;-62
2023/12/13 07:45:56;;;;;;;105.90;40.92;;;;;;;3.63;100.00;99220.59;1724153;81;26299;-62
2023/12/13 07:48:24;;;;;;;110.60;41.70;;;;;;;3.63;100.00;99211.23;1727752;82;25390;-62
2023/12/13 07:50:53;;;;;;;101.97;40.12;;;;;;;3.60;100.00;99210.47;1725842;81;27806;-61
2023/12/13 07:53:20;;;;;;;108.12;43.23;;;;;;;3.59;100.00;99209.66;1663413;84;25866;-62
2023/12/13 07:55:47;;;;;;;102.97;41.40;;;;;;;3.58;100.00;99212.09;1670742;84;25739;-62
2023/12/13 07:58:15;;;;;;;109.87;43.90;;;;;;;3.54;100.00;99207.87;1721270;81;25666;-61
2023/12/13 08:00:42;;;;;;;105.87;42.15;;;;;;;3.52;100.00;99211.38;1724347;81;25481;-63
2023/12/13 08:03:09;;;;;;;103.02;41.35;;;;;;;3.50;100.00;99213.52;1728824;81;28097;-62
2023/12/13 08:05:36;;;;;;;101.92;41.88;;;;;;;3.51;100.00;99215.67;1714263;81;25625;-63
2023/12/13 08:08:04;;;;;;;98.65;41.25;;;;;;;3.52;100.00;99214.58;1728999;81;25825;-63
2023/12/13 08:10:31;;;;;;;111.00;42.17;;;;;;;3.51;100.00;99221.02;1720977;81;25799;-61
2023/12/13 08:12:58;;;;;;;106.85;42.38;;;;;;;3.51;100.00;99221.81;1724252;81;25473;-62
2023/12/13 08:15:26;;;;;;;106.63;41.55;;;;;;;3.54;100.00;99221.76;1723943;81;28311;-62
2023/12/13 08:17:53;;;;;;;95.07;39.80;;;;;;;3.52;100.00;99214.58;1723928;81;25762;-61
2023/12/13 08:20:20;;;;;;;99.58;41.00;;;;;;;3.53;100.00;99214.29;1723282;81;25772;-63
2023/12/13 08:22:46;;;;;;;97.82;41.58;;;;;;;3.50;100.00;99212.73;1738449;81;25657;-61
2023/12/13 08:25:13;;;;;;;98.27;39.05;;;;;;;3.48;100.00;99212.23;1725971;81;25804;-61
2023/12/13 08:27:40;;;;;;;102.85;42.10;;;;;;;3.45;100.00;99213.59;1720008;82;27953;-62
2023/12/13 08:30:09;;;;;;;96.82;41.83;;;;;;;3.42;100.00;99213.38;1720312;82;26079;-61
2023/12/13 08:32:36;;;;;;;103.00;42.93;;;;;;;3.40;100.00;99212.88;1728906;81;25817;-62
2023/12/13 08:35:05;;;;;;;107.87;41.60;;;;;;;3.39;100.00;99226.79;1724925;82;25839;-61
2023/12/13 08:37:31;;;;;;;110.08;43.60;;;;;;;3.40;100.00;99215.55;1714618;82;25587;-62
2023/12/13 08:39:58;;;;;;;106.83;43.87;;;;;;;3.41;100.00;99215.26;1717862;82;27663;-61
2023/12/13 08:42:25;;;;;;;115.70;44.38;;;;;;;3.40;100.00;99208.31;1711810;82;26175;-62
2023/12/13 08:44:52;;;;;;;110.92;43.98;;;;;;;3.40;100.00;99201.63;1717820;82;25892;-60
2023/12/13 08:47:21;;;;;;;104.78;44.20;;;;;;;3.43;100.00;99204.28;1722707;82;25654;-61
2023/12/13 08:49:48;;;;;;;108.87;44.67;;;;;;;3.45;100.00;99204.23;1728244;81;25804;-62
2023/12/13 08:52:18;;;;;;;113.52;45.48;;;;;;;3.46;100.00;99208.52;1724739;81;28004;-61
2023/12/13 08:54:43;;;;;;;110.25;45.50;;;;;;;3.46;100.00;99202.38;1726970;81;25793;-61
2023/12/13 08:57:11;;;;;;;123.22;47.48;;;;;;;3.50;100.00;99203.38;1719924;81;25401;-61
2023/12/13 08:59:38;;;;;;;125.53;48.60;;;;;;;3.52;100.00;99202.02;1725556;82;25813;-62
2023/12/13 09:02:05;;;;;;;118.00;47.48;;;;;;;3.58;100.00;99212.09;1717224;82;25517;-61
2023/12/13 09:04:31;;;;;;;130.32;49.83;;;;;;;3.62;100.00;99206.41;1727246;81;27236;-61
2023/12/13 09:06:59;;;;;;;122.75;50.55;;;;;;;3.64;100.00;99212.26;1717076;82;25770;-62
2023/12/13 09:09:26;;;;;;;122.70;49.15;;;;;;;3.68;100.00;99214.63;1719390;81;25767;-60
2023/12/13 09:11:52;;;;;;;131.70;50.43;;;;;;;3.67;100.00;99213.58;1730018;81;25669;-62
2023/12/13 09:14:19;;;;;;;127.02;49.42;;;;;;;3.69;100.00;99210.84;1700410;81;25823;-61
2023/12/13 09:16:46;;;;;;;136.45;52.45;;;;;;;3.71;100.00;99207.37;1718771;81;27873;-61
2023/12/13 09:19:13;;;;;;;128.27;51.80;;;;;;;3.74;100.00;99200.63;1702438;81;25523;-61
2023/12/13 09:21:40;;;;;;;125.80;51.05;;;;;;;3.77;100.00;99197.38;1731572;81;25397;-62
2023/12/13 09:24:07;;;;;;;122.55;49.88;;;;;;;3.77;100.00;99196.04;1725324;81;26125;-63
2023/12/13 09:26:38;;;;;;;115.92;51.23;;;;;;;3.79;100.00;99197.88;1723750;81;26311;-62
2023/12/13 09:29:07;;;;;;;123.10;50.23;;;;;;;3.78;100.00;99201.66;1730083;81;27666;-61
2023/12/13 09:31:34;;;;;;;119.43;49.63;;;;;;;3.79;100.00;99199.77;1727680;81;25807;-61
2023/12/13 09:34:02;;;;;;;117.97;47.88;;;;;;;3.80;100.00;99191.98;1726008;81;25798;-63
2023/12/13 09:36:28;;;;;;;125.47;49.38;;;;;;;3.80;100.00;99187.97;1732266;81;26615;-64
2023/12/13 09:38:56;;;;;;;129.97;51.48;;;;;;;3.82;100.00;99185.81;1720424;81;25793;-64
2023/12/13 09:41:30;;;;;;;131.60;51.60;;;;;;;3.85;100.00;99186.58;1718873;82;28025;-62
2023/12/13 09:43:57;;;;;;;135.28;53.00;;;;;;;3.86;100.00;99179.57;1721377;81;25853;-62
2023/12/13 09:46:26;;;;;;;132.15;51.77;;;;;;;3.90;100.00;99174.46;1727500;81;25875;-62
2023/12/13 09:48:54;;;;;;;117.28;48.85;;;;;;;3.91;100.00;99174.14;1718107;81;25599;-63
2023/12/13 09:51:22;;;;;;;106.32;45.52;;;;;;;3.91;100.00;99174.14;1723508;82;25730;-61
2023/12/13 09:53:52;;;;;;;105.67;45.55;;;;;;;3.90;100.00;99173.91;1723247;81;28525;-62
2023/12/13 09:56:21;;;;;;;114.55;49.25;;;;;;;3.89;100.00;99176.88;1722723;81;25408;-61
2023/12/13 09:58:48;;;;;;;115.20;49.15;;;;;;;3.90;100.00;99171.78;1726840;81;25786;-60
2023/12/13 10:01:16;;;;;;;102.22;45.70;;;;;;;3.89;100.00;99175.53;1709652;81;26303;-60
2023/12/13 10:03:43;;;;;;;110.68;47.70;;;;;;;3.86;100.00;99170.77;1727809;81;25474;-60
2023/12/13 10:06:10;;;;;;;111.83;48.20;;;;;;;3.85;100.00;99173.20;1735178;81;28021;-61
2023/12/13 10:08:37;;;;;;;111.17;48.68;;;;;;;3.85;100.00;99175.33;1720174;81;25793;-61
2023/12/13 10:11:06;;;;;;;107.35;48.98;;;;;;;3.88;100.00;99174.75;1691771;81;25840;-63
2023/12/13 10:13:34;;;;;;;110.65;48.92;;;;;;;3.89;100.00;99172.86;1719229;82;25622;-60
2023/12/13 10:16:13;;;;;;;108.92;48.55;;;;;;;3.88;100.00;99166.72;1732667;81;25821;-61
2023/12/13 10:18:40;;;;;;;104.17;47.23;;;;;;;3.90;100.00;99161.87;1739602;81;27421;-60
2023/12/13 10:21:08;;;;;;;113.75;48.55;;;;;;;3.92;100.00;99166.38;1721195;81;25815;-60
2023/12/13 10:23:36;;;;;;;109.00;46.92;;;;;;;3.92;100.00;99169.05;1723924;82;25410;-60
2023/12/13 10:26:05;;;;;;;99.70;45.40;;;;;;;3.95;100.00;99170.37;1692741;82;25800;-60
2023/12/13 10:28:36;;;;;;;107.00;49.10;;;;;;;3.92;100.00;99179.76;1703708;82;25881;-60
2023/12/13 10:31:04;;;;;;;104.85;47.65;;;;;;;3.91;100.00;99171.47;1720981;82;27375;-59
2023/12/13 10:33:32;;;;;;;110.05;46.88;;;;;;;3.92;100.00;99170.95;1713341;82;25816;-63
2023/12/13 10:35:59;;;;;;;109.22;51.00;;;;;;;3.90;100.00;99173.91;1721405;82;25806;-63
2023/12/13 10:38:27;;;;;;;113.70;48.95;;;;;;;3.91;100.00;99170.13;1719500;81;25419;-63
2023/12/13 10:40:54;;;;;;;106.37;47.17;;;;;;;3.89;100.00;99167.51;1692725;82;25905;-62
2023/12/13 10:43:24;;;;;;;111.92;51.42;;;;;;;3.84;100.00;99172.94;1717563;82;27356;-60
2023/12/13 10:46:02;;;;;;;113.12;50.85;;;;;;;3.77;100.00;99169.84;1718731;82;25466;-60
2023/12/13 10:48:39;;;;;;;129.13;52.27;;;;;;;3.74;100.00;99167.20;1722186;82;25809;-61
2023/12/13 10:51:08;;;;;;;117.33;52.33;;;;;;;3.76;100.00;99166.36;1716171;81;26627;-61
2023/12/13 10:53:36;;;;;;;124.97;55.27;;;;;;;3.79;100.00;99167.12;1718277;82;25860;-60
2023/12/13 10:56:05;;;;;;;124.75;53.65;;;;;;;3.82;100.00;99159.06;1720897;82;27313;-59
2023/12/13 10:58:33;;;;;;;127.40;53.92;;;;;;;3.82;100.00;99156.39;1718938;82;25878;-60
2023/12/13 11:01:02;;;;;;;117.05;54.27;;;;;;;3.82;100.00;99160.41;1697569;81;25730;-59
2023/12/13 11:03:49;;;;;;;147.57;66.77;;;;;;;3.82;100.00;99157.17;1705603;82;26146;-59
2023/12/13 11:06:20;;;;;;;123.42;53.98;;;;;;;3.83;100.00;99155.29;1721293;81;25645;-59
2023/12/13 11:08:47;;;;;;;122.10;51.00;;;;;;;3.85;100.00;99155.81;1716296;82;28247;-61
2023/12/13 11:11:19;;;;;;;119.08;51.00;;;;;;;3.83;100.00;99147.27;1721540;82;25467;-61
2023/12/13 11:13:53;;;;;;;113.52;47.78;;;;;;;3.85;100.00;99155.27;1714104;82;25748;-59
2023/12/13 11:16:24;;;;;;;109.67;47.95;;;;;;;3.87;100.00;99150.96;1720587;82;26294;-60
2023/12/13 11:18:59;;;;;;;106.25;48.63;;;;;;;3.82;100.00;99145.14;1714866;82;25837;-60